createdAt,value
2022-08-10T00:01:56.596Z,4.03
2022-08-10T00:12:20.017Z,3.10
2022-08-10T00:18:38.063Z,3.53
2022-08-10T00:32:08.021Z,3.97
2022-08-10T00:34:35.028Z,3.23
2022-08-10T00:37:01.825Z,3.23
2022-08-10T00:40:07.170Z,3.70
2022-08-10T01:06:24.058Z,3.63
2022-08-10T01:13:32.710Z,3.53
2022-08-10T01:36:06.446Z,3.23
2022-08-10T01:42:45.164Z,3.10
2022-08-10T02:18:39.274Z,3.37
2022-08-10T02:21:10.531Z,3.30
2022-08-10T02:27:20.960Z,3.10
2022-08-10T15:45:26.283Z,5.03
2022-08-10T15:48:03.113Z,5.03
2022-08-10T15:50:51.002Z,4.67
2022-08-10T15:53:46.828Z,5.53
2022-08-10T15:56:28.635Z,5.47
2022-08-10T15:59:14.605Z,4.93
2022-08-10T16:02:03.897Z,5.13
2022-08-10T16:04:32.770Z,4.90
2022-08-10T16:07:06.819Z,5.17
2022-08-10T16:10:23.923Z,5.47
2022-08-10T16:12:37.279Z,5.00
2022-08-10T16:15:12.126Z,4.90
2022-08-10T16:18:00.098Z,4.80
2022-08-10T16:20:52.494Z,4.80
2022-08-10T16:23:38.240Z,4.30
2022-08-10T16:26:17.938Z,4.57
2022-08-10T16:28:50.368Z,4.90
2022-08-10T16:31:21.532Z,4.70
2022-08-10T16:33:53.906Z,4.63
2022-08-10T16:36:28.862Z,4.33
2022-08-10T16:38:57.594Z,4.43
2022-08-10T16:42:04.477Z,5.10
2022-08-10T16:44:18.205Z,4.90
2022-08-10T16:46:46.470Z,3.67
2022-08-10T16:49:16.597Z,4.33
2022-08-10T16:51:48.303Z,4.30
2022-08-10T16:54:22.392Z,4.60
2022-08-10T16:56:53.896Z,5.30
2022-08-10T16:59:24.770Z,4.53
2022-08-10T17:01:53.971Z,4.30
2022-08-10T17:04:23.793Z,3.93
2022-08-10T17:06:57.306Z,4.10
2022-08-10T17:09:27.756Z,4.23
2022-08-10T17:11:56.303Z,4.70
2022-08-10T17:14:27.124Z,4.20
2022-08-10T17:17:06.705Z,4.10
2022-08-10T17:19:41.149Z,3.87
2022-08-10T17:22:16.419Z,3.90
2022-08-10T17:24:47.854Z,3.70
2022-08-10T17:28:05.378Z,4.07
2022-08-10T17:30:14.302Z,3.53
2022-08-10T17:32:49.658Z,3.50
2022-08-10T17:35:23.339Z,3.87
2022-08-10T17:37:55.941Z,4.43
2022-08-10T17:40:26.119Z,3.70
2022-08-10T17:42:54.392Z,3.00
2022-08-10T17:45:48.851Z,3.70
2022-08-10T17:48:18.044Z,4.20
2022-08-10T17:50:49.551Z,4.70
2022-08-10T17:53:24.589Z,3.67
2022-08-10T17:55:58.156Z,4.27
2022-08-10T17:58:27.198Z,4.07
2022-08-10T18:00:57.504Z,4.70
2022-08-10T18:03:49.638Z,4.40
2022-08-10T18:06:18.283Z,4.70
2022-08-10T18:08:53.356Z,4.57
2022-08-10T18:11:20.409Z,4.17
2022-08-10T18:13:55.936Z,3.60
2022-08-10T18:16:27.294Z,4.27
2022-08-10T18:19:00.735Z,3.43
2022-08-10T18:21:30.816Z,3.90
2022-08-10T18:24:18.362Z,4.57
2022-08-10T18:26:49.166Z,7.80
2022-08-10T18:29:19.779Z,8.43
2022-08-10T18:31:48.613Z,6.63
2022-08-10T18:34:20.404Z,4.73
2022-08-10T18:36:49.774Z,3.70
2022-08-10T18:39:22.989Z,4.80
2022-08-10T18:42:04.550Z,5.20
2022-08-10T18:44:36.215Z,5.83
2022-08-10T18:47:16.188Z,5.43
2022-08-10T18:50:09.688Z,3.13
2022-08-10T18:52:39.900Z,3.17
2022-08-10T18:55:24.723Z,3.13
2022-08-10T18:58:21.134Z,2.67
2022-08-10T19:01:21.403Z,2.70
2022-08-10T19:04:02.096Z,2.77
2022-08-10T19:06:47.547Z,3.00
2022-08-10T19:09:47.438Z,3.33
2022-08-10T19:12:30.007Z,3.27
2022-08-10T19:15:00.905Z,3.70
2022-08-10T19:18:01.112Z,3.63
2022-08-10T19:20:35.829Z,3.00
2022-08-10T19:23:05.986Z,3.20
2022-08-10T19:26:40.839Z,3.40
2022-08-10T19:30:05.084Z,2.90
2022-08-10T19:32:41.984Z,3.23
2022-08-10T19:35:11.172Z,3.40
2022-08-10T19:37:59.984Z,3.20
2022-08-10T19:40:52.996Z,3.53
2022-08-10T19:43:59.218Z,2.53
2022-08-10T19:46:31.942Z,3.43
2022-08-10T19:49:39.812Z,3.40
2022-08-10T19:52:16.274Z,2.93
2022-08-10T19:55:15.028Z,3.43
2022-08-10T19:57:52.851Z,2.83
2022-08-10T20:00:24.271Z,2.83
2022-08-10T20:03:12.274Z,2.80
2022-08-10T20:06:18.602Z,3.10
2022-08-10T20:09:06.574Z,2.80
2022-08-10T20:11:48.324Z,2.87
2022-08-10T20:14:42.488Z,2.87
2022-08-10T20:17:16.446Z,2.90
2022-08-10T20:19:56.267Z,2.97
2022-08-10T20:22:29.502Z,2.83
2022-08-10T20:25:09.138Z,2.70
2022-08-10T20:28:29.342Z,2.90
2022-08-10T20:31:19.775Z,2.30
2022-08-10T20:34:36.092Z,3.20
2022-08-10T20:37:09.753Z,2.80
2022-08-10T20:40:12.930Z,3.03
2022-08-10T20:43:05.953Z,2.57
2022-08-10T20:46:05.366Z,3.37
2022-08-10T20:48:35.209Z,3.23
2022-08-10T20:51:09.182Z,3.20
2022-08-10T20:53:45.529Z,2.93
2022-08-10T20:56:20.385Z,2.33
2022-08-10T20:59:05.463Z,2.83
2022-08-10T21:02:06.749Z,3.20
2022-08-10T21:04:52.628Z,3.20
2022-08-10T21:08:01.217Z,3.10
2022-08-10T21:10:41.685Z,3.60
2022-08-10T21:13:42.848Z,3.20
2022-08-10T21:17:03.799Z,3.10
2022-08-10T21:20:02.483Z,3.23
2022-08-10T21:22:34.874Z,3.03
2022-08-10T21:25:04.062Z,3.00
2022-08-10T21:28:04.292Z,2.63
2022-08-10T21:30:43.233Z,3.53
2022-08-10T21:33:20.682Z,3.50
2022-08-10T21:35:56.773Z,3.10
2022-08-10T21:38:29.445Z,3.30
2022-08-10T21:42:06.339Z,3.20
2022-08-10T21:45:58.815Z,2.93
2022-08-10T21:48:37.696Z,3.23
2022-08-10T21:52:01.519Z,3.40
2022-08-10T21:54:54.325Z,3.37
2022-08-10T21:57:49.239Z,3.20
2022-08-10T22:00:35.758Z,3.17
2022-08-10T22:03:23.174Z,3.27
2022-08-10T22:06:13.423Z,3.30
2022-08-10T22:09:04.067Z,3.07
2022-08-10T22:11:53.287Z,3.37
2022-08-10T22:14:54.647Z,3.77
2022-08-10T22:18:01.150Z,3.23
2022-08-10T22:20:55.337Z,3.20
2022-08-10T22:23:40.649Z,2.80
2022-08-10T22:26:29.070Z,3.13
2022-08-10T22:29:18.387Z,3.30
2022-08-10T22:32:29.949Z,3.23
2022-08-10T22:35:49.908Z,3.13
2022-08-10T22:38:44.755Z,3.47
2022-08-10T22:41:56.536Z,3.10
2022-08-10T22:44:44.020Z,2.93
2022-08-10T22:47:33.411Z,3.50
2022-08-10T22:50:07.475Z,3.13
2022-08-10T22:53:03.074Z,3.57
2022-08-10T22:55:55.344Z,3.40
2022-08-10T22:58:48.264Z,3.40
2022-08-10T23:01:40.709Z,3.80
2022-08-10T23:04:21.510Z,3.80
2022-08-10T23:06:59.179Z,6.23
2022-08-10T23:09:27.625Z,7.57
2022-08-10T23:11:59.315Z,6.80
2022-08-10T23:14:35.906Z,5.20
2022-08-10T23:17:22.826Z,4.73
2022-08-10T23:20:15.509Z,4.10
2022-08-10T23:22:48.584Z,4.20
2022-08-10T23:25:20.513Z,4.00
2022-08-10T23:27:58.490Z,3.50
2022-08-10T23:30:38.915Z,4.10
2022-08-10T23:33:12.982Z,3.47
2022-08-10T23:36:30.827Z,3.40
2022-08-10T23:38:37.769Z,3.33
2022-08-10T23:41:06.537Z,3.83
2022-08-10T23:44:02.909Z,3.57
2022-08-10T23:46:28.169Z,3.37
2022-08-10T23:48:58.266Z,3.83
2022-08-10T23:51:38.815Z,4.03
2022-08-10T23:54:22.567Z,3.20
2022-08-10T23:56:54.341Z,3.90
2022-08-10T23:59:23.860Z,3.80
